createdAt,value
2022-09-20T03:00:31.138Z,9.70
2022-09-20T03:03:04.845Z,4.78
2022-09-20T03:05:36.625Z,8.70
2022-09-20T03:08:09.421Z,4.72
2022-09-20T03:10:39.592Z,4.20
2022-09-20T03:13:14.858Z,7.23
2022-09-20T03:15:53.250Z,5.68
2022-09-20T03:18:28.040Z,5.15
2022-09-20T03:20:59.657Z,4.65
2022-09-20T03:23:36.851Z,5.57
2022-09-20T03:26:08.620Z,4.40
2022-09-20T03:28:43.779Z,6.50
2022-09-20T03:31:18.906Z,7.75
2022-09-20T03:33:51.729Z,7.20
2022-09-20T03:36:25.888Z,5.00
2022-09-20T03:39:02.996Z,5.13
2022-09-20T03:41:49.673Z,7.38
2022-09-20T03:44:25.334Z,4.22
2022-09-20T03:46:56.997Z,6.57
2022-09-20T03:49:42.454Z,7.18
2022-09-20T03:52:19.172Z,9.13
2022-09-20T03:55:14.063Z,7.85
2022-09-20T03:57:47.178Z,5.85
2022-09-20T04:00:20.737Z,4.88
2022-09-20T04:02:57.795Z,4.93
2022-09-20T04:05:31.496Z,6.67
2022-09-20T04:08:06.504Z,7.85
2022-09-20T04:10:36.096Z,6.22
2022-09-20T04:13:16.544Z,6.72
2022-09-20T04:15:47.389Z,5.50
2022-09-20T04:18:21.721Z,6.70
2022-09-20T04:20:52.059Z,4.07
2022-09-20T04:23:26.443Z,6.80
2022-09-20T04:25:54.029Z,6.65
2022-09-20T04:28:24.737Z,4.70
2022-09-20T04:30:55.634Z,5.57
2022-09-20T04:33:26.508Z,4.55
2022-09-20T04:36:19.141Z,6.53
2022-09-20T04:38:49.390Z,5.57
2022-09-20T04:41:29.589Z,5.57
2022-09-20T04:44:14.693Z,5.83
2022-09-20T04:47:00.036Z,7.22
2022-09-20T04:49:42.374Z,3.67
2022-09-20T04:52:27.560Z,6.40
2022-09-20T04:55:15.677Z,7.32
2022-09-20T04:57:59.617Z,6.37
2022-09-20T05:00:32.707Z,5.55
2022-09-20T05:03:23.052Z,5.53
2022-09-20T05:05:59.689Z,5.38
2022-09-20T05:08:41.624Z,4.15
2022-09-20T05:11:20.133Z,7.53
2022-09-20T05:13:58.536Z,5.72
2022-09-20T05:16:31.031Z,6.95
2022-09-20T05:19:08.845Z,6.63
2022-09-20T05:21:59.747Z,5.32
2022-09-20T05:24:38.307Z,3.97
2022-09-20T05:27:13.855Z,5.97
2022-09-20T05:29:48.658Z,6.95
2022-09-20T05:32:23.604Z,6.10
2022-09-20T05:34:55.662Z,7.40
2022-09-20T05:37:29.223Z,6.90
2022-09-20T05:40:01.669Z,5.13
2022-09-20T05:42:35.566Z,5.93
2022-09-20T05:45:12.825Z,8.35
2022-09-20T05:47:45.339Z,5.60
2022-09-20T05:50:29.347Z,6.00
2022-09-20T05:52:59.709Z,5.40
2022-09-20T05:55:51.303Z,7.38
2022-09-20T05:58:25.952Z,9.15
2022-09-20T06:00:57.434Z,5.68
2022-09-20T06:03:31.549Z,6.77
2022-09-20T06:06:03.538Z,6.63
2022-09-20T06:08:36.611Z,6.10
2022-09-20T06:11:23.644Z,7.93
2022-09-20T06:14:01.128Z,6.35
2022-09-20T06:16:34.280Z,17.33
2022-09-20T06:19:06.476Z,8.70
2022-09-20T06:21:42.708Z,7.20
2022-09-20T06:24:18.120Z,6.88
2022-09-20T06:26:45.928Z,8.25
2022-09-20T06:29:15.256Z,9.23
2022-09-20T06:31:44.095Z,9.50
2022-09-20T06:34:12.621Z,10.75
2022-09-20T06:36:54.938Z,6.68
2022-09-20T06:39:48.953Z,6.55
2022-09-20T06:42:16.498Z,9.13
2022-09-20T06:44:44.041Z,8.55
2022-09-20T06:47:13.404Z,9.18
2022-09-20T06:49:42.362Z,11.02
2022-09-20T06:52:12.210Z,6.80
2022-09-20T06:54:40.776Z,7.03
2022-09-20T06:57:08.303Z,7.43
2022-09-20T06:59:35.799Z,11.32
2022-09-20T07:02:03.315Z,7.35
2022-09-20T07:04:32.768Z,7.40
2022-09-20T07:07:00.898Z,7.63
2022-09-20T07:09:28.453Z,6.65
2022-09-20T07:11:56.351Z,6.45
2022-09-20T07:14:23.999Z,6.25
2022-09-20T07:16:51.513Z,6.15
2022-09-20T07:19:19.167Z,4.20
2022-09-20T07:21:48.138Z,6.68
2022-09-20T07:24:16.018Z,8.60
2022-09-20T07:26:55.419Z,9.38
2022-09-20T07:29:22.998Z,8.63
2022-09-20T07:31:50.776Z,5.93
2022-09-20T07:34:20.267Z,4.40
2022-09-20T07:36:50.254Z,5.13
2022-09-20T07:39:17.882Z,6.43
2022-09-20T07:41:48.555Z,6.25
2022-09-20T07:44:24.859Z,8.07
2022-09-20T07:46:52.763Z,9.73
2022-09-20T07:49:21.222Z,7.63
2022-09-20T07:51:50.459Z,8.02
2022-09-20T07:54:18.480Z,6.15
2022-09-20T07:56:46.312Z,6.60
2022-09-20T07:59:14.172Z,5.03
2022-09-20T08:01:42.116Z,6.10
2022-09-20T08:04:10.185Z,5.55
2022-09-20T08:06:37.966Z,5.97
2022-09-20T08:09:10.933Z,6.70
2022-09-20T08:11:39.572Z,5.65
2022-09-20T08:14:08.765Z,4.80
2022-09-20T08:16:39.212Z,7.32
2022-09-20T08:19:06.785Z,6.93
2022-09-20T08:21:35.224Z,5.60
2022-09-20T08:24:03.941Z,5.90
2022-09-20T08:26:35.119Z,7.03
2022-09-20T08:29:02.639Z,4.15
2022-09-20T08:31:34.390Z,5.53
2022-09-20T08:34:03.746Z,8.63
2022-09-20T08:36:36.073Z,7.15
2022-09-20T08:41:56.414Z,5.55
2022-09-20T08:44:25.841Z,5.63
2022-09-20T08:46:56.102Z,5.33
2022-09-20T08:49:27.477Z,5.63
2022-09-20T08:51:58.025Z,5.15
2022-09-20T08:54:26.115Z,5.88
2022-09-20T08:56:55.871Z,7.05
2022-09-20T08:59:25.953Z,4.47
2022-09-20T09:01:54.291Z,5.45
2022-09-20T09:04:23.467Z,5.78
2022-09-20T09:06:52.557Z,6.05
2022-09-20T09:09:20.846Z,5.93
2022-09-20T09:11:49.206Z,7.03
2022-09-20T09:14:41.374Z,6.72
2022-09-20T09:17:09.880Z,5.95
2022-09-20T09:19:44.037Z,5.80
2022-09-20T09:22:12.058Z,6.90
2022-09-20T09:24:39.594Z,5.00
2022-09-20T09:27:08.494Z,5.43
2022-09-20T09:29:41.199Z,7.80
2022-09-20T09:32:20.480Z,6.03
2022-09-20T09:34:47.996Z,5.15
2022-09-20T09:37:30.493Z,7.97
2022-09-20T09:40:08.517Z,6.97
2022-09-20T09:42:35.992Z,4.63
2022-09-20T09:45:25.377Z,6.13
2022-09-20T09:47:52.855Z,4.70
2022-09-20T09:50:23.138Z,6.70
2022-09-20T09:53:06.412Z,7.82
2022-09-20T09:55:54.208Z,6.28
2022-09-20T09:58:28.629Z,5.73
2022-09-20T10:00:59.611Z,5.97
2022-09-20T10:03:34.072Z,6.30
2022-09-20T10:06:10.509Z,5.22
2022-09-20T10:08:41.169Z,7.20
2022-09-20T10:11:14.445Z,6.63
2022-09-20T10:13:45.089Z,6.78
2022-09-20T10:16:17.598Z,6.30
2022-09-20T10:18:49.194Z,7.60
2022-09-20T10:21:25.027Z,7.68
2022-09-20T10:24:04.634Z,5.25
2022-09-20T10:26:37.640Z,6.60
2022-09-20T10:29:08.414Z,5.35
2022-09-20T10:31:42.483Z,5.25
2022-09-20T10:34:36.800Z,5.55
2022-09-20T10:37:05.067Z,6.37
2022-09-20T10:39:34.135Z,5.27
2022-09-20T10:42:25.066Z,5.95
2022-09-20T10:44:58.702Z,6.68
2022-09-20T10:47:33.234Z,6.43
2022-09-20T10:50:06.061Z,5.43
2022-09-20T10:52:43.405Z,5.20
2022-09-20T10:55:21.194Z,6.68
2022-09-20T10:58:04.517Z,4.63
2022-09-20T11:00:36.905Z,4.60
2022-09-20T11:03:11.252Z,5.10
2022-09-20T11:05:44.731Z,5.63
2022-09-20T11:08:13.828Z,5.18
2022-09-20T11:10:43.560Z,4.78
2022-09-20T11:13:16.714Z,5.53
2022-09-20T11:15:45.775Z,4.85
2022-09-20T11:18:20.980Z,6.03
2022-09-20T11:20:51.143Z,4.03
2022-09-20T11:23:21.045Z,5.70
2022-09-20T11:25:51.800Z,6.50
2022-09-20T11:28:21.851Z,5.60
2022-09-20T11:30:54.381Z,5.22
2022-09-20T11:33:26.715Z,6.40
2022-09-20T11:35:56.080Z,4.87
2022-09-20T11:38:26.686Z,4.57
2022-09-20T11:40:55.978Z,5.68
2022-09-20T11:43:25.332Z,6.35
2022-09-20T11:45:55.422Z,5.65
2022-09-20T11:48:26.683Z,4.47
2022-09-20T11:51:27.278Z,5.35
2022-09-20T11:54:12.452Z,4.87
2022-09-20T11:56:40.216Z,4.80
2022-09-20T11:59:20.543Z,4.15
2022-09-20T12:01:48.087Z,6.75
2022-09-20T12:04:33.698Z,3.95
2022-09-20T12:07:08.303Z,4.72
2022-09-20T12:09:38.507Z,5.88
2022-09-20T12:12:24.320Z,4.40
2022-09-20T12:14:55.066Z,4.17
2022-09-20T12:17:41.075Z,5.13
2022-09-20T12:20:23.434Z,4.85
2022-09-20T12:22:52.277Z,4.57
2022-09-20T12:25:40.049Z,4.20
2022-09-20T12:28:14.755Z,5.10
2022-09-20T12:30:42.229Z,3.50
2022-09-20T12:33:19.538Z,4.47
2022-09-20T12:35:55.628Z,4.25
2022-09-20T12:38:28.674Z,4.78
2022-09-20T12:41:00.335Z,4.80
2022-09-20T12:43:29.003Z,3.83
2022-09-20T12:46:01.264Z,4.43
2022-09-20T12:48:34.725Z,3.53
2022-09-20T12:51:29.615Z,3.63
2022-09-20T12:54:03.501Z,4.28
2022-09-20T12:56:34.241Z,3.47
2022-09-20T12:59:05.482Z,4.03
2022-09-20T13:01:40.234Z,4.03
2022-09-20T13:04:26.590Z,4.47
2022-09-20T13:07:16.173Z,3.60
2022-09-20T13:09:45.147Z,3.20
2022-09-20T13:12:12.690Z,3.15
2022-09-20T13:14:40.322Z,3.23
2022-09-20T13:17:15.670Z,3.15
2022-09-20T13:19:44.833Z,2.80
2022-09-20T13:22:14.840Z,3.38
2022-09-20T13:24:43.148Z,3.20
2022-09-20T13:27:19.365Z,4.10
2022-09-20T13:29:47.084Z,3.47
2022-09-20T13:32:18.825Z,3.45
2022-09-20T13:34:46.632Z,2.80
2022-09-20T13:37:23.643Z,3.42
2022-09-20T13:39:54.800Z,3.10
2022-09-20T13:42:23.936Z,3.95
2022-09-20T13:44:51.909Z,3.28
2022-09-20T13:47:23.651Z,2.95
2022-09-20T13:49:51.581Z,3.10
2022-09-20T13:52:26.385Z,2.60
2022-09-20T13:54:55.314Z,2.97
2022-09-20T13:57:25.641Z,3.20
2022-09-20T13:59:54.117Z,2.70
2022-09-20T14:02:23.331Z,3.30
2022-09-20T14:04:52.564Z,3.93
2022-09-20T14:07:20.667Z,2.95
2022-09-20T14:09:48.168Z,2.50
2022-09-20T14:12:15.693Z,2.90
2022-09-20T14:14:44.977Z,2.72
2022-09-20T14:17:15.172Z,3.10
2022-09-20T14:19:43.587Z,3.85
2022-09-20T14:22:17.109Z,2.85
2022-09-20T14:24:59.431Z,3.17
2022-09-20T14:27:27.007Z,3.47
2022-09-20T14:29:56.308Z,2.90
2022-09-20T14:32:36.992Z,4.40
2022-09-20T14:35:06.025Z,3.47
2022-09-20T14:37:34.840Z,3.10
2022-09-20T14:40:04.237Z,2.80
2022-09-20T14:42:34.987Z,4.70
2022-09-20T14:45:05.156Z,3.28
2022-09-20T14:47:37.917Z,3.20
2022-09-20T14:50:06.492Z,3.38
2022-09-20T14:52:38.585Z,2.42
2022-09-20T14:55:18.364Z,3.40
2022-09-20T14:57:46.912Z,3.83
2022-09-20T15:00:17.252Z,3.03
2022-09-20T15:02:45.623Z,4.13
2022-09-20T15:05:18.761Z,2.95
2022-09-20T15:07:46.849Z,3.67
2022-09-20T15:10:14.769Z,2.70
2022-09-20T15:12:42.946Z,3.10
2022-09-20T15:15:14.882Z,2.55
2022-09-20T15:17:43.934Z,2.90
2022-09-20T15:20:16.039Z,3.33
2022-09-20T15:22:44.824Z,2.85
2022-09-20T15:25:17.186Z,3.35
2022-09-20T15:27:46.424Z,3.13
2022-09-20T15:30:15.689Z,4.03
2022-09-20T15:32:44.841Z,2.27
2022-09-20T15:35:13.755Z,2.88
2022-09-20T15:37:41.673Z,2.78
2022-09-20T15:40:09.606Z,4.13
2022-09-20T15:42:38.029Z,2.60
2022-09-20T15:45:08.925Z,4.27
2022-09-20T15:47:36.887Z,3.00
2022-09-20T15:50:08.465Z,3.05
2022-09-20T15:52:36.702Z,2.60
2022-09-20T15:55:04.823Z,2.72
2022-09-20T15:57:32.611Z,2.80
2022-09-20T16:00:00.811Z,2.45
2022-09-20T16:02:29.031Z,2.78
2022-09-20T16:04:56.541Z,2.53
2022-09-20T16:07:28.283Z,2.70
2022-09-20T16:09:56.790Z,4.00
2022-09-20T16:12:25.212Z,2.70
2022-09-20T16:14:52.700Z,2.70
2022-09-20T16:17:40.302Z,3.03
2022-09-20T16:20:07.351Z,2.70
2022-09-20T16:22:36.158Z,2.60
2022-09-20T16:25:05.922Z,2.83
2022-09-20T16:27:34.309Z,2.97
2022-09-20T16:30:02.301Z,2.63
2022-09-20T16:32:29.760Z,2.22
2022-09-20T16:34:58.551Z,4.10
2022-09-20T16:37:26.649Z,3.30
2022-09-20T16:39:55.458Z,2.83
2022-09-20T16:42:23.375Z,2.88
2022-09-20T16:44:50.929Z,2.53
2022-09-20T16:47:22.186Z,2.63
2022-09-20T16:49:50.297Z,3.72
2022-09-20T16:52:17.822Z,3.22
2022-09-20T16:54:45.302Z,3.25
2022-09-20T16:57:15.608Z,3.28
2022-09-20T16:59:43.289Z,4.53
2022-09-20T17:02:11.460Z,9.98
2022-09-20T17:04:39.028Z,7.72
2022-09-20T17:07:07.306Z,5.82
2022-09-20T17:09:34.911Z,6.88
2022-09-20T17:12:09.272Z,5.43
2022-09-20T17:14:38.186Z,4.30
2022-09-20T17:17:06.397Z,4.85
2022-09-20T17:19:33.955Z,5.00
2022-09-20T17:22:01.535Z,4.22
2022-09-20T17:24:30.290Z,3.90
2022-09-20T17:26:57.830Z,3.83
2022-09-20T17:29:25.373Z,3.80
2022-09-20T17:31:59.435Z,5.75
2022-09-20T17:34:29.643Z,4.82
2022-09-20T17:36:57.209Z,4.73
2022-09-20T17:39:25.015Z,4.65
2022-09-20T17:41:52.737Z,3.60
2022-09-20T17:44:20.562Z,4.20
2022-09-20T17:46:49.601Z,4.38
2022-09-20T17:49:19.778Z,5.87
2022-09-20T17:51:48.356Z,5.75
2022-09-20T17:54:16.229Z,7.13
2022-09-20T17:56:44.197Z,4.10
2022-09-20T17:59:12.616Z,4.30
2022-09-20T18:01:40.639Z,5.03
2022-09-20T18:04:08.714Z,4.30
2022-09-20T18:06:38.093Z,4.75
2022-09-20T18:09:06.565Z,3.42
2022-09-20T18:11:35.324Z,3.53
2022-09-20T18:14:03.365Z,3.30
2022-09-20T18:16:31.032Z,3.67
2022-09-20T18:18:59.808Z,3.45
2022-09-20T18:21:28.377Z,3.00
2022-09-20T18:23:59.068Z,5.32
2022-09-20T18:26:27.487Z,2.60
2022-09-20T18:28:56.760Z,4.22
2022-09-20T18:31:25.178Z,4.10
2022-09-20T18:33:56.106Z,3.50
2022-09-20T18:36:25.578Z,3.58
2022-09-20T18:38:54.824Z,3.00
2022-09-20T18:41:25.566Z,3.42
2022-09-20T18:43:54.270Z,5.50
2022-09-20T18:46:24.948Z,3.00
2022-09-20T18:48:53.065Z,3.50
2022-09-20T18:51:21.337Z,3.67
2022-09-20T18:53:48.953Z,4.82
2022-09-20T18:56:22.564Z,3.20
2022-09-20T18:58:51.850Z,3.40
2022-09-20T19:01:28.293Z,3.65
2022-09-20T19:03:58.992Z,4.23
2022-09-20T19:06:28.665Z,2.90
2022-09-20T19:08:59.185Z,3.58
2022-09-20T19:11:28.637Z,3.25
2022-09-20T19:14:00.745Z,4.60
2022-09-20T19:16:31.064Z,3.77
2022-09-20T19:19:08.298Z,4.28
2022-09-20T19:21:40.910Z,4.22
2022-09-20T19:24:15.652Z,3.78
2022-09-20T19:26:44.184Z,6.60
2022-09-20T19:29:18.046Z,3.60
2022-09-20T19:31:47.652Z,5.00
2022-09-20T19:34:18.672Z,5.30
2022-09-20T19:36:49.818Z,3.92
2022-09-20T19:39:20.327Z,4.10
2022-09-20T19:41:52.831Z,4.83
2022-09-20T19:44:29.403Z,3.53
2022-09-20T19:47:03.706Z,4.13
2022-09-20T19:49:38.326Z,4.35
2022-09-20T19:52:06.466Z,4.50
2022-09-20T19:54:34.208Z,5.43
2022-09-20T19:57:02.744Z,4.20
2022-09-20T19:59:32.728Z,5.63
2022-09-20T20:02:00.742Z,4.78
2022-09-20T20:04:28.424Z,5.00
2022-09-20T20:07:00.873Z,5.37
2022-09-20T20:09:33.213Z,4.97
2022-09-20T20:12:02.954Z,5.82
2022-09-20T20:14:35.034Z,5.25
2022-09-20T20:17:05.541Z,7.75
2022-09-20T20:19:38.238Z,5.10
2022-09-20T20:22:09.280Z,6.80
2022-09-20T20:24:38.610Z,6.00
2022-09-20T20:27:06.064Z,5.38
2022-09-20T20:29:34.894Z,8.55
2022-09-20T20:32:02.474Z,12.13
2022-09-20T20:34:30.181Z,13.77
2022-09-20T20:37:00.987Z,14.75
2022-09-20T20:39:28.835Z,9.38
2022-09-20T20:42:01.828Z,10.15
2022-09-20T20:44:29.980Z,7.07
2022-09-20T20:46:58.833Z,5.38
2022-09-20T20:49:26.414Z,4.25
2022-09-20T20:51:53.913Z,5.60
2022-09-20T20:54:21.857Z,4.38
2022-09-20T20:56:49.337Z,4.33
2022-09-20T20:59:17.252Z,4.40
